Terminal Aerodrome Forecast
Issued by NWS Grand Forks, ND

Home | Current Version | Previous Version | Graphics & Text | Print | Product List | Glossary On
Versions: 1 2 3 4 5 6 7 8 9 10 11 12 13 14 15 16 17 18 19 20 21 22 23 24 25 26
002
FTUS43 KFGF 260706 AAA
TAFGFK
TAF AMD
KGFK 260706Z 2607/2706 16006KT P6SM BKN200
     FM261000 VRB03KT P6SM OVC018
     FM261500 20003KT P6SM OVC070=

USA.gov is the U.S. government's official web portal to all federal, state and local government web resources and services.